• Join FlightAware (Why Join?)
  • Login
  • US Flag 
02:35AM EST


 

Airport Tracker/Info


-or-


 

Live Flight TrackerFlight Track Log ✈ SWA267 ✈ 14-Apr-2013 ✈ KBWI - KMHT

Flight Track Log - Related Links

Times and Time Zones

All times are in EDT time to prevent confusion due to time zone crossing. See the SWA267 flight status page for this flight to view local times or setup timezone preferences in your user account.

Time Position Orientation Groundspeed Altitude Reporting Facility
EDT Latitude Longitude Course Direction KTS MPH feet Rate Location/Type
02:09PM 39.1667 -76.7000 270° West 164 189 1,300  Level Potomac TRACON
02:10PM 39.1667 -76.7667 270° West 219 252 3,200 1,800 Climbing Potomac TRACON
02:11PM 39.1000 -76.7167 150° Southeast 269 310 4,900 1,920 Climbing Potomac TRACON
02:12PM 39.0833 -76.6333 104° East 310 357 6,900 2,100 Climbing Potomac TRACON
02:14PM 39.1275 -76.4022 76° East 323 372 11,300 2,220 Climbing Washington Center
02:15PM 39.1469 -76.2714 79° East 348 400 13,800 2,400 Climbing Washington Center
02:16PM 39.1644 -76.1164 82° East 382 440 16,200 2,280 Climbing Washington Center
02:17PM 39.1817 -75.9719 81° East 397 457 18,400 2,100 Climbing Washington Center
02:18PM 39.2236 -75.8381 68° East 403 464 20,500 1,980 Climbing Washington Center
02:19PM 39.3031 -75.7392 44° Northeast 381 438 22,400 1,680 Climbing Washington Center
02:20PM 39.3844 -75.6319 46° Northeast 394 453 23,900 1,560 Climbing Washington Center
02:21PM 39.4697 -75.5217 45° Northeast 409 471 25,600 1,740 Climbing Washington Center
02:22PM 39.5531 -75.4139 45° Northeast 422 486 27,400 1,080 Climbing Washington Center
02:24PM 39.7114 -75.1992 46° Northeast 450 518 29,000 480 Climbing New York Center
02:25PM 39.7972 -75.0778 47° Northeast 455 524 29,000  Level New York Center
02:26PM 39.8831 -74.9503 49° Northeast 455 524 29,000  Level New York Center
02:27PM 39.9875 -74.8267 42° Northeast 455 524 29,000  Level New York Center
02:28PM 40.0975 -74.7789 18° North 415 478 29,000  Level New York Center
02:29PM 40.2136 -74.7392 15° North 415 478 29,000 -60 Level New York Center
02:30PM 40.3297 -74.6969 15° North 423 487 28,900  Descending New York Center
02:31PM 40.4414 -74.6542 16° North 418 481 29,000  Climbing New York Center
02:32PM 40.5511 -74.6139 16° North 418 481 29,000  Level New York Center
02:33PM 40.6628 -74.5764 14° North 413 475 29,000  Level New York Center
02:34PM 40.8328 -74.5139 16° North 420 483 29,000 -60 Level Boston Center
02:35PM 40.9400 -74.4733 16° North 414 476 28,900  Descending Boston Center
02:36PM 41.0489 -74.4383 14° North 408 470 29,000  Climbing Boston Center
02:37PM 41.1558 -74.3975 16° North 403 464 29,000  Level Boston Center
02:38PM 41.2650 -74.3594 15° North 403 464 29,000  Level Boston Center
02:39PM 41.3719 -74.3183 16° North 398 458 29,000  Level Boston Center
02:40PM 41.4789 -74.2800 15° North 398 458 29,000  Level Boston Center
02:41PM 41.6025 -74.2392 14° North 403 464 29,000  Level Boston Center
02:42PM 41.7094 -74.1975 16° North 403 464 29,000  Level Boston Center
02:43PM 41.8036 -74.1639 15° North 398 458 29,000  Level Boston Center
02:44PM 41.9128 -74.1250 15° North 392 451 29,000 -60 Level Boston Center
02:45PM 42.0178 -74.0608 24° Northeast 398 458 28,900 -600 Descending Boston Center
02:46PM 42.0969 -73.9061 55° Northeast 414 476 27,800 -1,020 Descending Boston Center
02:47PM 42.1572 -73.7619 61° Northeast 456 525 26,900 -900 Descending Boston Center
02:48PM 42.2256 -73.6064 59° Northeast 469 540 26,000 -960 Descending Boston Center
02:49PM 42.2939 -73.4506 59° Northeast 469 540 25,000 -900 Descending Boston Center
02:51PM 42.3639 -73.2972 58° Northeast 461 531 24,100 -960 Descending Boston Center
02:52PM 42.4422 -73.1153 60° Northeast 469 540 22,900 -840 Descending Boston Center
02:53PM 42.5056 -72.9611 61° Northeast 463 533 22,500 -780 Descending Boston Center
02:54PM 42.5686 -72.8150 60° Northeast 463 533 21,400 -1,740 Descending Boston Center
02:55PM 42.6356 -72.6658 59° Northeast 441 507 19,000 -2,220 Descending Boston Center
02:56PM 42.6942 -72.5306 59° Northeast 423 487 17,000 -1,860 Descending Boston Center
02:57PM 42.7483 -72.4033 60° Northeast 405 466 15,000 -1,680 Descending Boston Center
02:58PM 42.7900 -72.3014 61° Northeast 392 451 13,400 -2,040 Descending Boston Center
02:59PM 42.8064 -72.1089 83° East 365 420 10,900 -1,800 Descending Boston Center
03:00PM 42.8164 -71.9817 84° East 346 398 9,900 -1,080 Descending Boston Center
03:01PM 42.8219 -71.8683 86° East 320 368 8,800 -1,440 Descending Boston Center
03:02PM 42.8278 -71.7606 86° East 291 335 7,000 -1,800 Descending Boston Center
03:03PM 42.8144 -71.6561 100° East 286 329 5,200 -2,040 Descending Boston Center
03:04PM 42.7950 -71.5544 105° East 280 322 3,000 -1,380 Descending Boston Center
03:05PM 42.7881 -71.4583 96° East 270 311 2,500 -360 Descending Boston Center
03:06PM 42.8292 -71.4067 43° Northeast 197 227 2,400 -480 Descending Boston Center
03:07PM 42.8728 -71.3975 North 148 170 1,500 -780 Descending Boston Center
03:08PM 42.9086 -71.4225 333° Northwest 129 148 700 -600 Descending Boston Center
03:09PM 42.9400 -71.4361 342° North 129 148 400 4,200 Descending Boston Center
03:10PM 42.9714 -71.4583 333° Northwest 129 148 9,000 4,320 Climbing Boston Center
03:11PM 43.0028 -71.4778 336° Northwest 129 148 9,000  Level Boston Center
03:12PM 43.0342 -71.5000 333° Northwest 129 148 9,000  Level Boston Center
03:14PM 42.9328 -71.4358 166° South  Level Estimated
03:21PM 42.9328 -71.4358 166° South  Level Estimated
03:22PM 42.9328 -71.4358 166° South  Level Estimated
03:23PM 42.9328 -71.4358 166° South  Level Estimated
03:24PM 42.9328 -71.4358 166° South  Level Estimated
03:25PM 42.9328 -71.4358 166° South  Level Estimated